Time;durP1;ratioP1;P1;durP2;ratioP2;P2;SDS_P1;SDS_P2;PMS_P1;PMS_P2;Temp;Humidity;BMP_temperature;BMP_pressure;BME280_temperature;BME280_humidity;BME280_pressure;Samples;Min_cycle;Max_cycle;Signal;HPM_P1;HPM_P2
2021/08/11 00:00:19;;;;;;;78.90;57.95;;;;;;;;;;4963819;28;20031;-60
2021/08/11 00:02:45;;;;;;;45.50;30.50;;;;;;;;;;4963705;28;20142;-57
2021/08/11 00:05:11;;;;;;;62.78;36.65;;;;;;;;;;4963849;28;20027;-57
2021/08/11 00:07:38;;;;;;;41.95;26.92;;;;;;;;;;4963786;28;20033;-65
2021/08/11 00:10:05;;;;;;;21.35;13.18;;;;;;;;;;4971181;28;20395;-62
2021/08/11 00:12:31;;;;;;;22.05;12.48;;;;;;;;;;4974096;28;20500;-59
2021/08/11 00:15:00;;;;;;;22.25;12.13;;;;;;;;;;4974236;28;20364;-62
2021/08/11 00:17:26;;;;;;;24.80;11.48;;;;;;;;;;4976815;28;20026;-61
2021/08/11 00:19:52;;;;;;;29.52;11.80;;;;;;;;;;4978065;28;20034;-60
2021/08/11 00:22:18;;;;;;;26.48;13.25;;;;;;;;;;4978030;28;20479;-62
2021/08/11 00:24:44;;;;;;;27.42;13.68;;;;;;;;;;4978081;28;20038;-58
2021/08/11 00:27:10;;;;;;;34.88;16.73;;;;;;;;;;4977787;28;20023;-60
2021/08/11 00:29:36;;;;;;;46.17;19.45;;;;;;;;;;4978169;28;20030;-62
2021/08/11 00:32:02;;;;;;;50.53;23.45;;;;;;;;;;4978172;28;20026;-61
2021/08/11 00:34:29;;;;;;;64.25;27.38;;;;;;;;;;4977808;28;20035;-62
2021/08/11 00:36:55;;;;;;;74.00;33.45;;;;;;;;;;4977910;28;20034;-71
2021/08/11 00:39:21;;;;;;;85.13;38.22;;;;;;;;;;4977570;28;20031;-61
2021/08/11 00:41:47;;;;;;;103.75;45.42;;;;;;;;;;4977691;28;20035;-62
2021/08/11 00:44:14;;;;;;;95.13;43.78;;;;;;;;;;4977897;28;20106;-60
2021/08/11 00:46:45;;;;;;;77.53;36.88;;;;;;;;;;4977808;28;20114;-61
2021/08/11 00:49:12;;;;;;;80.70;34.83;;;;;;;;;;4977764;28;20430;-62
2021/08/11 00:51:39;;;;;;;81.10;38.92;;;;;;;;;;4977778;28;20419;-63
2021/08/11 00:54:06;;;;;;;84.05;39.65;;;;;;;;;;4977645;28;20490;-63
2021/08/11 00:56:32;;;;;;;87.40;41.05;;;;;;;;;;4977699;28;20023;-65
2021/08/11 00:58:59;;;;;;;85.03;39.05;;;;;;;;;;4977460;28;20031;-61
2021/08/11 01:01:25;;;;;;;78.88;35.78;;;;;;;;;;4977672;28;20061;-62
2021/08/11 01:03:54;;;;;;;69.18;33.40;;;;;;;;;;4977682;28;20023;-59
2021/08/11 01:06:20;;;;;;;63.25;29.73;;;;;;;;;;4977361;28;20037;-61
2021/08/11 01:08:46;;;;;;;52.00;23.30;;;;;;;;;;4977206;28;20117;-62
2021/08/11 01:11:15;;;;;;;43.40;20.25;;;;;;;;;;4977297;28;20031;-62
2021/08/11 01:13:42;;;;;;;32.67;14.10;;;;;;;;;;4977179;28;20030;-62
2021/08/11 01:16:10;;;;;;;27.15;13.32;;;;;;;;;;4977402;28;20035;-66
2021/08/11 01:18:36;;;;;;;28.10;14.15;;;;;;;;;;4977241;28;20035;-60
2021/08/11 01:21:25;;;;;;;35.08;15.68;;;;;;;;;;4977141;28;20077;-63
2021/08/11 01:24:13;;;;;;;38.33;17.33;;;;;;;;;;4977065;28;20052;-62
2021/08/11 01:26:58;;;;;;;62.95;26.35;;;;;;;;;;4976170;28;20027;-64
2021/08/11 01:29:47;;;;;;;77.00;34.35;;;;;;;;;;4976840;28;20027;-63
2021/08/11 01:32:25;;;;;;;86.68;37.25;;;;;;;;;;4976298;28;20046;-64
2021/08/11 01:34:52;;;;;;;65.93;27.65;;;;;;;;;;4976752;28;20110;-62
2021/08/11 01:37:23;;;;;;;42.05;17.15;;;;;;;;;;4976855;28;20082;-62
2021/08/11 01:39:51;;;;;;;26.92;12.82;;;;;;;;;;4976626;28;20035;-67
2021/08/11 01:42:26;;;;;;;33.10;13.05;;;;;;;;;;4976767;28;20031;-66
2021/08/11 01:44:58;;;;;;;27.15;12.90;;;;;;;;;;4976667;28;20110;-65
2021/08/11 01:47:30;;;;;;;28.90;12.70;;;;;;;;;;4976968;28;20472;-64
2021/08/11 01:49:56;;;;;;;26.23;12.40;;;;;;;;;;4976744;28;20027;-65
2021/08/11 01:52:24;;;;;;;29.60;12.35;;;;;;;;;;4976551;28;20069;-65
2021/08/11 01:54:51;;;;;;;21.60;10.80;;;;;;;;;;4976562;28;20054;-62
2021/08/11 01:57:17;;;;;;;17.55;9.35;;;;;;;;;;4976683;28;20029;-64
2021/08/11 01:59:44;;;;;;;21.05;8.70;;;;;;;;;;4975067;28;20394;-62
2021/08/11 02:02:13;;;;;;;15.65;8.88;;;;;;;;;;4976528;28;20041;-62
2021/08/11 02:04:40;;;;;;;20.77;9.70;;;;;;;;;;4976545;28;20078;-62
2021/08/11 02:07:06;;;;;;;19.77;9.07;;;;;;;;;;4976400;28;20030;-63
2021/08/11 02:09:32;;;;;;;22.17;9.20;;;;;;;;;;4976044;28;20054;-61
2021/08/11 02:11:58;;;;;;;15.10;7.85;;;;;;;;;;4976498;28;20082;-62
2021/08/11 02:14:29;;;;;;;15.43;7.53;;;;;;;;;;4976118;28;20038;-61
2021/08/11 02:16:55;;;;;;;16.27;7.13;;;;;;;;;;4976397;28;20023;-60
2021/08/11 02:19:21;;;;;;;15.77;7.40;;;;;;;;;;4976121;28;20054;-61
2021/08/11 02:21:47;;;;;;;13.30;7.50;;;;;;;;;;4976098;28;20391;-61
2021/08/11 02:24:13;;;;;;;16.23;7.82;;;;;;;;;;4976109;28;20069;-61
2021/08/11 02:26:50;;;;;;;15.75;7.18;;;;;;;;;;4976106;28;20097;-61
2021/08/11 02:29:21;;;;;;;22.05;11.82;;;;;;;;;;4975962;28;20019;-63
2021/08/11 02:31:56;;;;;;;44.50;26.88;;;;;;;;;;4975984;28;20166;-61
2021/08/11 02:34:37;;;;;;;64.13;40.75;;;;;;;;;;4975781;28;20450;-62
2021/08/11 02:37:06;;;;;;;41.80;21.35;;;;;;;;;;4975891;28;20026;-62
2021/08/11 02:39:37;;;;;;;31.38;18.67;;;;;;;;;;4974920;28;20498;-64
2021/08/11 02:42:06;;;;;;;39.35;20.35;;;;;;;;;;4975851;28;20035;-66
2021/08/11 02:44:36;;;;;;;42.42;20.52;;;;;;;;;;4975792;28;20035;-63
2021/08/11 02:47:02;;;;;;;44.00;21.55;;;;;;;;;;4975656;28;20031;-67
2021/08/11 02:49:29;;;;;;;37.53;18.55;;;;;;;;;;4979054;28;20494;-62
2021/08/11 02:51:58;;;;;;;35.58;18.15;;;;;;;;;;4978683;28;20031;-62
2021/08/11 02:54:25;;;;;;;34.90;15.82;;;;;;;;;;4977721;28;20041;-60
2021/08/11 02:56:51;;;;;;;39.10;17.80;;;;;;;;;;4975522;28;20105;-58
2021/08/11 02:59:20;;;;;;;39.53;18.90;;;;;;;;;;4975697;28;20026;-61
2021/08/11 03:01:47;;;;;;;45.70;21.13;;;;;;;;;;4975451;28;20492;-60
2021/08/11 03:04:13;;;;;;;47.03;23.63;;;;;;;;;;4975328;28;20023;-60
2021/08/11 03:06:42;;;;;;;52.17;22.90;;;;;;;;;;4975406;28;20467;-59
2021/08/11 03:09:09;;;;;;;44.80;20.58;;;;;;;;;;4974939;28;20526;-60
2021/08/11 03:11:37;;;;;;;43.33;19.85;;;;;;;;;;4975424;28;20035;-60
2021/08/11 03:14:05;;;;;;;43.10;19.75;;;;;;;;;;4973733;28;20042;-61
2021/08/11 03:16:31;;;;;;;48.58;20.20;;;;;;;;;;4975154;28;20031;-61
2021/08/11 03:18:57;;;;;;;44.95;20.60;;;;;;;;;;4975075;28;20027;-60
2021/08/11 03:21:24;;;;;;;48.05;21.52;;;;;;;;;;4974940;28;20030;-62
2021/08/11 03:23:50;;;;;;;49.08;22.02;;;;;;;;;;4974993;28;20029;-59
2021/08/11 03:26:16;;;;;;;44.28;21.58;;;;;;;;;;4975023;28;20078;-60
2021/08/11 03:28:42;;;;;;;55.55;23.33;;;;;;;;;;4974742;28;20379;-59
2021/08/11 03:31:08;;;;;;;44.90;21.52;;;;;;;;;;4974823;28;20081;-60
2021/08/11 03:33:34;;;;;;;43.00;19.50;;;;;;;;;;4974863;28;20034;-58
2021/08/11 03:36:00;;;;;;;34.92;18.15;;;;;;;;;;4974711;28;20035;-54
2021/08/11 03:38:26;;;;;;;35.75;17.80;;;;;;;;;;4974824;28;20054;-61
2021/08/11 03:40:52;;;;;;;36.65;15.63;;;;;;;;;;4974717;28;20050;-59
2021/08/11 03:43:18;;;;;;;32.28;16.63;;;;;;;;;;4974828;28;20427;-59
2021/08/11 03:45:44;;;;;;;39.63;17.50;;;;;;;;;;4974848;28;20052;-60
2021/08/11 03:48:11;;;;;;;41.72;17.90;;;;;;;;;;4974741;28;20023;-60
2021/08/11 03:50:37;;;;;;;39.70;19.38;;;;;;;;;;4974431;28;20023;-60
2021/08/11 03:53:03;;;;;;;42.55;20.33;;;;;;;;;;4974529;28;20031;-61
2021/08/11 03:55:32;;;;;;;48.33;21.70;;;;;;;;;;4974712;28;20038;-58
2021/08/11 03:57:59;;;;;;;44.60;20.55;;;;;;;;;;4974715;28;20030;-60
2021/08/11 04:00:28;;;;;;;45.63;21.90;;;;;;;;;;4974572;28;20038;-60
2021/08/11 04:02:54;;;;;;;54.50;27.30;;;;;;;;;;4974477;28;20110;-59
2021/08/11 04:05:20;;;;;;;57.10;25.80;;;;;;;;;;4974514;28;20467;-60
2021/08/11 04:07:46;;;;;;;65.68;30.02;;;;;;;;;;4974369;28;20055;-62
2021/08/11 04:10:13;;;;;;;61.95;28.40;;;;;;;;;;4974309;28;20055;-61
2021/08/11 04:12:39;;;;;;;60.08;29.42;;;;;;;;;;4974720;28;20078;-62
2021/08/11 04:15:06;;;;;;;67.65;31.38;;;;;;;;;;4974259;28;20035;-61
2021/08/11 04:17:32;;;;;;;69.35;33.08;;;;;;;;;;4974557;28;20062;-62
2021/08/11 04:19:58;;;;;;;94.68;43.80;;;;;;;;;;4974281;28;20027;-61
2021/08/11 04:22:24;;;;;;;101.57;44.67;;;;;;;;;;4974321;28;20030;-61
2021/08/11 04:24:50;;;;;;;119.88;51.72;;;;;;;;;;4974237;28;20159;-61
2021/08/11 04:27:16;;;;;;;93.40;41.53;;;;;;;;;;4974344;28;20034;-59
2021/08/11 04:29:42;;;;;;;96.65;38.95;;;;;;;;;;4974207;28;20379;-57
2021/08/11 04:32:08;;;;;;;78.50;36.80;;;;;;;;;;4974128;28;20039;-60
2021/08/11 04:34:34;;;;;;;79.25;33.83;;;;;;;;;;4974137;28;20042;-59
2021/08/11 04:37:00;;;;;;;65.90;31.15;;;;;;;;;;4974050;28;20430;-61
2021/08/11 04:39:26;;;;;;;69.28;29.27;;;;;;;;;;4974356;28;20034;-60
2021/08/11 04:41:53;;;;;;;56.78;25.00;;;;;;;;;;4974290;28;20051;-61
2021/08/11 04:44:19;;;;;;;61.13;26.98;;;;;;;;;;4974016;28;20063;-62
2021/08/11 04:46:45;;;;;;;53.08;25.58;;;;;;;;;;4974230;28;20031;-59
2021/08/11 04:49:11;;;;;;;56.45;26.58;;;;;;;;;;4973143;28;20096;-57
2021/08/11 04:51:37;;;;;;;58.83;27.13;;;;;;;;;;4973866;28;20037;-54
2021/08/11 04:54:07;;;;;;;61.95;28.08;;;;;;;;;;4973924;28;20387;-59
2021/08/11 04:56:33;;;;;;;60.70;26.40;;;;;;;;;;4974309;28;20048;-62
2021/08/11 04:59:00;;;;;;;53.75;25.15;;;;;;;;;;4973942;28;20062;-59
2021/08/11 05:01:26;;;;;;;47.40;24.65;;;;;;;;;;4974056;28;20109;-60
2021/08/11 05:03:54;;;;;;;61.90;28.30;;;;;;;;;;4976847;28;20023;-60
2021/08/11 05:06:20;;;;;;;51.58;25.92;;;;;;;;;;4977372;28;20023;-60
2021/08/11 05:08:46;;;;;;;50.72;23.98;;;;;;;;;;4977285;28;20038;-62
2021/08/11 05:11:12;;;;;;;43.85;22.60;;;;;;;;;;4977265;28;20432;-58
2021/08/11 05:13:41;;;;;;;51.47;23.42;;;;;;;;;;4977347;28;20042;-56
2021/08/11 05:16:07;;;;;;;44.78;25.83;;;;;;;;;;4977107;28;20372;-59
2021/08/11 05:18:33;;;;;;;43.08;21.88;;;;;;;;;;4977191;28;20027;-61
2021/08/11 05:20:59;;;;;;;44.03;21.98;;;;;;;;;;4977030;28;20065;-60
2021/08/11 05:23:27;;;;;;;41.78;22.08;;;;;;;;;;4977032;28;20077;-59
2021/08/11 05:25:55;;;;;;;42.50;19.98;;;;;;;;;;4977044;28;20061;-54
2021/08/11 05:28:21;;;;;;;45.67;19.25;;;;;;;;;;4977034;28;20022;-59
2021/08/11 05:30:48;;;;;;;46.67;19.42;;;;;;;;;;4977146;28;20383;-60
2021/08/11 05:33:14;;;;;;;41.92;19.48;;;;;;;;;;4976800;28;20102;-58
2021/08/11 05:35:40;;;;;;;36.47;17.98;;;;;;;;;;4976938;28;20034;-68
2021/08/11 05:38:06;;;;;;;36.25;17.80;;;;;;;;;;4976624;28;20094;-60
2021/08/11 05:40:32;;;;;;;33.55;18.83;;;;;;;;;;4976644;28;20124;-61
2021/08/11 05:42:58;;;;;;;39.67;18.30;;;;;;;;;;4976716;28;20478;-60
2021/08/11 05:45:24;;;;;;;39.95;19.27;;;;;;;;;;4976637;28;20027;-62
2021/08/11 05:47:50;;;;;;;35.83;17.17;;;;;;;;;;4976648;28;20519;-61
2021/08/11 05:50:19;;;;;;;42.47;18.20;;;;;;;;;;4976711;28;20031;-59
2021/08/11 05:52:46;;;;;;;37.80;19.33;;;;;;;;;;4976422;28;20031;-59
2021/08/11 05:55:12;;;;;;;35.35;17.42;;;;;;;;;;4976438;28;20066;-59
2021/08/11 05:57:39;;;;;;;31.55;15.55;;;;;;;;;;4976611;28;20033;-59
2021/08/11 06:00:06;;;;;;;32.40;16.15;;;;;;;;;;4976667;28;20445;-59
2021/08/11 06:02:34;;;;;;;34.25;16.00;;;;;;;;;;4976596;28;20039;-60
2021/08/11 06:05:00;;;;;;;34.80;16.60;;;;;;;;;;4976356;28;20470;-59
2021/08/11 06:07:26;;;;;;;36.50;17.13;;;;;;;;;;4976086;28;20084;-58
2021/08/11 06:09:54;;;;;;;29.92;15.77;;;;;;;;;;4976058;28;20047;-58
2021/08/11 06:12:20;;;;;;;27.23;14.80;;;;;;;;;;4976221;28;20033;-58
2021/08/11 06:14:46;;;;;;;30.15;13.55;;;;;;;;;;4974995;28;20521;-58
2021/08/11 06:17:13;;;;;;;25.52;13.27;;;;;;;;;;4975963;28;20097;-56
2021/08/11 06:19:39;;;;;;;25.77;13.13;;;;;;;;;;4976115;28;20026;-58
2021/08/11 06:22:05;;;;;;;25.33;13.20;;;;;;;;;;4975829;28;20046;-58
2021/08/11 06:24:31;;;;;;;21.10;12.18;;;;;;;;;;4975892;28;20027;-58
2021/08/11 06:26:58;;;;;;;38.53;24.42;;;;;;;;;;4976022;28;20130;-57
2021/08/11 06:29:24;;;;;;;22.38;11.95;;;;;;;;;;4975818;28;20022;-57
2021/08/11 06:31:53;;;;;;;21.38;10.10;;;;;;;;;;4975754;28;20027;-57
2021/08/11 06:34:19;;;;;;;19.67;9.82;;;;;;;;;;4975714;28;20376;-57
2021/08/11 06:36:45;;;;;;;13.38;7.75;;;;;;;;;;4975718;28;20035;-58
2021/08/11 06:39:11;;;;;;;16.15;7.45;;;;;;;;;;4975721;28;20507;-58
2021/08/11 06:41:37;;;;;;;13.23;6.93;;;;;;;;;;4976016;28;20034;-58
2021/08/11 06:44:05;;;;;;;13.73;6.68;;;;;;;;;;4975778;28;20019;-58
2021/08/11 06:46:31;;;;;;;11.98;6.43;;;;;;;;;;4975801;28;20034;-58
2021/08/11 06:48:57;;;;;;;15.82;8.30;;;;;;;;;;4975794;28;20023;-56
2021/08/11 06:51:24;;;;;;;9.23;5.93;;;;;;;;;;4975569;28;20027;-59
2021/08/11 06:53:54;;;;;;;12.60;5.53;;;;;;;;;;4977156;28;20038;-59
2021/08/11 06:56:24;;;;;;;23.20;12.57;;;;;;;;;;4977300;28;20531;-58
2021/08/11 06:58:50;;;;;;;13.70;6.63;;;;;;;;;;4977563;28;20102;-58
2021/08/11 07:01:16;;;;;;;11.00;6.03;;;;;;;;;;4975891;28;20458;-58
2021/08/11 07:03:42;;;;;;;8.45;4.68;;;;;;;;;;4975351;28;20022;-57
2021/08/11 07:06:09;;;;;;;12.90;5.75;;;;;;;;;;4975251;28;20023;-57
2021/08/11 07:08:35;;;;;;;8.38;5.18;;;;;;;;;;4975117;28;20038;-59
2021/08/11 07:11:01;;;;;;;11.25;5.35;;;;;;;;;;4975192;28;20054;-55
2021/08/11 07:13:27;;;;;;;12.50;6.28;;;;;;;;;;4975290;28;20029;-54
2021/08/11 07:15:53;;;;;;;13.88;6.43;;;;;;;;;;4974956;28;20129;-55
2021/08/11 07:18:24;;;;;;;13.85;6.68;;;;;;;;;;4975120;28;20030;-55
2021/08/11 07:20:50;;;;;;;;;;;;;;;;;;4975351;28;20064;-56
2021/08/11 07:23:16;;;;;;;18.45;8.48;;;;;;;;;;4975406;28;19906;-57
2021/08/11 07:25:42;;;;;;;14.85;6.25;;;;;;;;;;4974680;28;20042;-57
2021/08/11 07:28:09;;;;;;;16.77;6.43;;;;;;;;;;4974971;28;20054;-58
2021/08/11 07:30:35;;;;;;;25.02;6.20;;;;;;;;;;4975002;28;20026;-58
2021/08/11 07:33:04;;;;;;;19.30;6.35;;;;;;;;;;4974934;28;20027;-58
2021/08/11 07:35:30;;;;;;;14.77;4.70;;;;;;;;;;4974747;28;20455;-59
2021/08/11 07:37:56;;;;;;;11.15;4.10;;;;;;;;;;4974868;28;20023;-58
2021/08/11 07:40:24;;;;;;;13.35;4.40;;;;;;;;;;4974623;28;20026;-57
2021/08/11 07:42:50;;;;;;;8.43;4.15;;;;;;;;;;4975016;28;20464;-56
2021/08/11 07:45:18;;;;;;;10.00;3.83;;;;;;;;;;4974720;28;20070;-58
2021/08/11 07:47:48;;;;;;;9.68;4.20;;;;;;;;;;4974991;28;20074;-55
2021/08/11 07:50:15;;;;;;;7.95;4.22;;;;;;;;;;4974555;28;20406;-57
2021/08/11 07:52:41;;;;;;;7.90;4.30;;;;;;;;;;4974630;28;20062;-54
2021/08/11 07:55:08;;;;;;;7.68;4.07;;;;;;;;;;4974812;28;20459;-57
2021/08/11 07:57:34;;;;;;;9.38;3.58;;;;;;;;;;4974589;28;20034;-57
2021/08/11 08:00:00;;;;;;;11.65;4.03;;;;;;;;;;4974590;28;20058;-57
2021/08/11 08:02:26;;;;;;;8.27;4.00;;;;;;;;;;4974789;28;20050;-57
2021/08/11 08:04:52;;;;;;;10.18;3.53;;;;;;;;;;4974402;28;20026;-57
2021/08/11 08:07:18;;;;;;;6.63;3.28;;;;;;;;;;4974692;28;20030;-56
2021/08/11 08:09:44;;;;;;;5.68;3.40;;;;;;;;;;4974288;28;20050;-57
2021/08/11 08:12:10;;;;;;;5.38;3.00;;;;;;;;;;4974502;28;20163;-57
2021/08/11 08:14:36;;;;;;;8.13;3.40;;;;;;;;;;4974324;28;20033;-55
2021/08/11 08:17:02;;;;;;;6.72;2.97;;;;;;;;;;4974419;28;20078;-58
2021/08/11 08:19:29;;;;;;;7.35;2.97;;;;;;;;;;4987428;28;20398;-55
2021/08/11 08:21:55;;;;;;;5.32;2.42;;;;;;;;;;4993122;28;20064;-57
2021/08/11 08:24:32;;;;;;;4.55;2.60;;;;;;;;;;4993178;28;20023;-49
2021/08/11 08:26:59;;;;;;;2.67;2.40;;;;;;;;;;4993144;28;20102;-49
2021/08/11 08:29:25;;;;;;;6.22;2.13;;;;;;;;;;4993090;28;20479;-56
2021/08/11 08:31:51;;;;;;;3.70;2.33;;;;;;;;;;4993081;28;20546;-56
2021/08/11 08:34:17;;;;;;;5.47;1.95;;;;;;;;;;4992982;28;20026;-57
2021/08/11 08:36:43;;;;;;;4.38;2.60;;;;;;;;;;4992198;28;20467;-55
2021/08/11 08:39:09;;;;;;;3.97;2.15;;;;;;;;;;4995562;28;20033;-55
2021/08/11 08:41:36;;;;;;;3.40;2.33;;;;;;;;;;4996146;28;20085;-58
2021/08/11 08:44:02;;;;;;;7.13;2.78;;;;;;;;;;4996631;28;20038;-58
2021/08/11 08:46:28;;;;;;;5.57;2.33;;;;;;;;;;4996618;28;20046;-60
2021/08/11 08:48:55;;;;;;;5.28;2.47;;;;;;;;;;4996480;28;20447;-58
2021/08/11 08:51:23;;;;;;;8.57;2.13;;;;;;;;;;4996312;28;20022;-58
2021/08/11 08:53:49;;;;;;;9.05;2.63;;;;;;;;;;4996296;28;20038;-69
2021/08/11 08:56:15;;;;;;;7.53;3.38;;;;;;;;;;4997310;28;20475;-69
2021/08/11 08:58:42;;;;;;;6.22;2.67;;;;;;;;;;4996441;28;20038;-64
2021/08/11 09:01:08;;;;;;;6.82;4.20;;;;;;;;;;4996375;28;20033;-68
2021/08/11 09:03:34;;;;;;;5.47;2.42;;;;;;;;;;4996331;28;20019;-61
2021/08/11 09:06:01;;;;;;;2.85;2.08;;;;;;;;;;4996187;28;20553;-63
2021/08/11 09:08:27;;;;;;;3.80;1.98;;;;;;;;;;4996313;28;20117;-62
2021/08/11 09:10:54;;;;;;;4.13;2.20;;;;;;;;;;4996153;28;20030;-55
2021/08/11 09:13:21;;;;;;;8.85;3.00;;;;;;;;;;4996283;28;20061;-55
2021/08/11 09:15:55;;;;;;;3.67;2.50;;;;;;;;;;4996127;28;20507;-54
2021/08/11 09:18:26;;;;;;;5.95;2.00;;;;;;;;;;4996058;28;20057;-56
2021/08/11 09:21:06;;;;;;;5.38;2.65;;;;;;;;;;4994002;28;20019;-56
2021/08/11 09:23:35;;;;;;;5.10;3.15;;;;;;;;;;4994283;28;20434;-56
2021/08/11 09:26:02;;;;;;;6.00;2.80;;;;;;;;;;4995886;28;20382;-57
2021/08/11 09:28:32;;;;;;;3.35;1.85;;;;;;;;;;4996017;28;20018;-57
2021/08/11 09:30:58;;;;;;;4.97;2.30;;;;;;;;;;4995823;28;20022;-55
2021/08/11 09:33:25;;;;;;;5.30;2.42;;;;;;;;;;4995620;28;20260;-56
2021/08/11 09:35:52;;;;;;;5.85;2.88;;;;;;;;;;4995430;28;20064;-54
2021/08/11 09:38:18;;;;;;;3.47;2.78;;;;;;;;;;4995758;28;20137;-54
2021/08/11 09:40:44;;;;;;;4.15;2.95;;;;;;;;;;4995767;28;20023;-54
2021/08/11 09:43:16;;;;;;;5.60;3.53;;;;;;;;;;4995749;28;20033;-51
2021/08/11 09:45:56;;;;;;;8.43;4.00;;;;;;;;;;4995589;28;20076;-59
2021/08/11 09:48:23;;;;;;;7.60;3.88;;;;;;;;;;4994658;28;20418;-55
2021/08/11 09:50:53;;;;;;;9.43;4.30;;;;;;;;;;4995472;28;20101;-53
2021/08/11 09:53:23;;;;;;;5.20;3.42;;;;;;;;;;4995590;28;20379;-54
2021/08/11 09:56:07;;;;;;;8.65;4.30;;;;;;;;;;4995344;28;20113;-47
2021/08/11 09:58:38;;;;;;;4.85;3.13;;;;;;;;;;4993010;28;20037;-47
2021/08/11 10:01:27;;;;;;;7.88;3.60;;;;;;;;;;4995311;28;20022;-53
2021/08/11 10:03:55;;;;;;;8.32;3.55;;;;;;;;;;4954730;29;20386;-56
2021/08/11 10:06:40;;;;;;;10.85;4.38;;;;;;;;;;4954765;29;20127;-56
2021/08/11 10:09:17;;;;;;;24.08;15.57;;;;;;;;;;4954589;29;20051;-58
2021/08/11 10:11:47;;;;;;;8.65;4.80;;;;;;;;;;4954714;29;20062;-58
2021/08/11 10:14:15;;;;;;;9.80;5.05;;;;;;;;;;4954646;28;20540;-49
2021/08/11 10:16:44;;;;;;;8.52;4.45;;;;;;;;;;4954109;29;20043;-52
2021/08/11 10:19:11;;;;;;;10.32;4.00;;;;;;;;;;4954096;29;20086;-56
2021/08/11 10:21:40;;;;;;;9.48;4.90;;;;;;;;;;4953969;29;20094;-53
2021/08/11 10:24:06;;;;;;;6.15;3.95;;;;;;;;;;4954149;29;20019;-56
2021/08/11 10:26:32;;;;;;;8.95;3.60;;;;;;;;;;4954047;29;20027;-55
2021/08/11 10:28:58;;;;;;;6.20;4.22;;;;;;;;;;4951317;29;20511;-56
2021/08/11 10:31:25;;;;;;;6.20;4.30;;;;;;;;;;4953741;29;20019;-56
2021/08/11 10:33:53;;;;;;;7.95;5.30;;;;;;;;;;4953798;29;20031;-55
2021/08/11 10:36:19;;;;;;;7.45;4.38;;;;;;;;;;4953378;29;20042;-56
2021/08/11 10:38:46;;;;;;;16.13;11.38;;;;;;;;;;4953790;29;20038;-56
2021/08/11 10:41:16;;;;;;;12.18;5.13;;;;;;;;;;4969008;28;20047;-57
2021/08/11 10:43:43;;;;;;;12.48;6.90;;;;;;;;;;4991219;28;20026;-57
2021/08/11 10:46:13;;;;;;;8.18;4.75;;;;;;;;;;4993491;28;20379;-57
2021/08/11 10:48:39;;;;;;;10.98;5.32;;;;;;;;;;4993532;28;20076;-56
2021/08/11 10:51:06;;;;;;;9.43;5.22;;;;;;;;;;4993416;28;20033;-57
2021/08/11 10:53:32;;;;;;;13.63;5.45;;;;;;;;;;4993533;28;20799;-56
2021/08/11 10:55:59;;;;;;;7.82;4.43;;;;;;;;;;4994614;28;20034;-59
2021/08/11 10:58:38;;;;;;;18.13;9.15;;;;;;;;;;4998120;28;20014;-67
2021/08/11 11:01:24;;;;;;;10.30;5.10;;;;;;;;;;4991992;28;20026;-69
2021/08/11 11:03:51;;;;;;;19.38;10.73;;;;;;;;;;4993142;28;20101;-71
2021/08/11 11:06:20;;;;;;;16.65;6.05;;;;;;;;;;4994316;28;20104;-70
2021/08/11 11:08:46;;;;;;;29.45;14.65;;;;;;;;;;4993903;28;20074;-68
2021/08/11 11:11:32;;;;;;;15.52;7.18;;;;;;;;;;4994143;28;20037;-69
2021/08/11 11:13:59;;;;;;;19.17;11.07;;;;;;;;;;4991309;28;20085;-69
2021/08/11 11:16:44;;;;;;;9.05;5.15;;;;;;;;;;4993383;28;20511;-67
2021/08/11 11:19:10;;;;;;;11.98;7.47;;;;;;;;;;4992484;28;20153;-64
2021/08/11 11:21:36;;;;;;;41.15;28.33;;;;;;;;;;4993177;28;20026;-66
2021/08/11 11:24:02;;;;;;;7.30;4.38;;;;;;;;;;4993545;28;20478;-65
2021/08/11 11:26:32;;;;;;;8.00;5.95;;;;;;;;;;4993739;28;20026;-68
2021/08/11 11:29:11;;;;;;;40.65;31.08;;;;;;;;;;4993987;28;20397;-69
2021/08/11 11:31:42;;;;;;;5.93;4.07;;;;;;;;;;4993573;28;20030;-70
2021/08/11 11:34:20;;;;;;;7.93;4.22;;;;;;;;;;4993774;28;20045;-71
2021/08/11 11:37:06;;;;;;;21.65;16.75;;;;;;;;;;4991378;28;20034;-68
2021/08/11 11:39:33;;;;;;;11.63;5.53;;;;;;;;;;4993214;28;20026;-67
2021/08/11 11:42:08;;;;;;;31.73;21.90;;;;;;;;;;4993705;28;20022;-66
2021/08/11 11:44:54;;;;;;;10.70;8.15;;;;;;;;;;4993515;28;20093;-67
2021/08/11 11:47:42;;;;;;;49.03;36.60;;;;;;;;;;4991429;28;20022;-67
2021/08/11 11:52:49;;;;;;;24.85;15.80;;;;;;;;;;4992354;28;20037;-64
2021/08/11 11:55:25;;;;;;;14.82;9.88;;;;;;;;;;4993388;28;20022;-68
2021/08/11 11:57:55;;;;;;;15.70;6.60;;;;;;;;;;4993379;28;20157;-70
2021/08/11 12:00:21;;;;;;;11.52;5.57;;;;;;;;;;4993225;28;20046;-69
2021/08/11 12:02:51;;;;;;;39.13;25.38;;;;;;;;;;4993316;28;20019;-70
2021/08/11 12:05:17;;;;;;;14.50;10.60;;;;;;;;;;4991087;28;20022;-64
2021/08/11 12:07:43;;;;;;;47.80;28.90;;;;;;;;;;4993724;28;20061;-71
2021/08/11 12:10:10;;;;;;;9.93;5.65;;;;;;;;;;4993060;28;20487;-69
2021/08/11 12:12:36;;;;;;;9.55;4.30;;;;;;;;;;4994311;28;20502;-69
2021/08/11 12:15:15;;;;;;;15.30;9.18;;;;;;;;;;4997189;28;20049;-69
2021/08/11 12:17:42;;;;;;;;;;;;;;;;;;4995776;28;20102;-70
2021/08/11 12:20:25;;;;;;;12.15;4.90;;;;;;;;;;4997180;28;19910;-68
2021/08/11 12:22:51;;;;;;;17.73;8.07;;;;;;;;;;4995541;28;20018;-70
2021/08/11 12:25:30;;;;;;;6.45;3.63;;;;;;;;;;4996794;28;20018;-69
2021/08/11 12:28:06;;;;;;;19.55;11.23;;;;;;;;;;4994903;28;20116;-71
2021/08/11 12:30:32;;;;;;;5.95;4.00;;;;;;;;;;4997549;28;20406;-70
2021/08/11 12:32:58;;;;;;;5.15;3.53;;;;;;;;;;4997550;28;20093;-67
2021/08/11 12:35:25;;;;;;;6.07;3.47;;;;;;;;;;4996882;28;20585;-67
2021/08/11 12:37:51;;;;;;;8.90;3.70;;;;;;;;;;4994630;28;20031;-71
2021/08/11 12:40:30;;;;;;;6.28;3.35;;;;;;;;;;4997412;28;20125;-69
2021/08/11 12:42:58;;;;;;;27.15;18.73;;;;;;;;;;4997280;28;20030;-71
2021/08/11 12:45:24;;;;;;;15.60;11.15;;;;;;;;;;4997203;28;20018;-65
2021/08/11 12:47:50;;;;;;;5.95;4.18;;;;;;;;;;4995929;28;20030;-70
2021/08/11 12:50:21;;;;;;;37.13;23.90;;;;;;;;;;4997176;28;20019;-65
2021/08/11 12:52:54;;;;;;;43.03;30.75;;;;;;;;;;4997014;28;20081;-54
2021/08/11 12:55:33;;;;;;;14.02;6.18;;;;;;;;;;4996878;28;20485;-52
2021/08/11 12:57:59;;;;;;;20.88;13.88;;;;;;;;;;4997065;28;20116;-61
2021/08/11 13:00:44;;;;;;;33.63;25.73;;;;;;;;;;4996964;28;20022;-49
2021/08/11 13:03:11;;;;;;;51.00;36.25;;;;;;;;;;4996799;28;20034;-58
2021/08/11 13:05:53;;;;;;;43.92;33.88;;;;;;;;;;4997145;28;20030;-60
2021/08/11 13:08:36;;;;;;;8.77;6.22;;;;;;;;;;4996671;28;20490;-63
2021/08/11 13:11:04;;;;;;;7.07;3.97;;;;;;;;;;4996161;28;20022;-49
2021/08/11 13:13:30;;;;;;;15.10;11.38;;;;;;;;;;4996253;28;20029;-59
2021/08/11 13:16:15;;;;;;;32.92;23.88;;;;;;;;;;4995268;28;20450;-60
2021/08/11 13:18:42;;;;;;;5.57;3.58;;;;;;;;;;4995223;28;20105;-63
2021/08/11 13:21:08;;;;;;;6.47;3.45;;;;;;;;;;4995116;28;20475;-55
2021/08/11 13:23:41;;;;;;;15.68;12.05;;;;;;;;;;4994690;28;20034;-52
2021/08/11 13:26:07;;;;;;;72.45;55.92;;;;;;;;;;4995096;28;20125;-62
2021/08/11 13:28:37;;;;;;;34.42;27.38;;;;;;;;;;4995519;28;20022;-63
2021/08/11 13:31:06;;;;;;;57.17;42.17;;;;;;;;;;4995764;28;20022;-55
2021/08/11 13:33:32;;;;;;;115.30;97.90;;;;;;;;;;4995872;28;20102;-54
2021/08/11 13:35:58;;;;;;;127.32;107.25;;;;;;;;;;4995875;28;20621;-52
2021/08/11 13:38:24;;;;;;;54.85;44.50;;;;;;;;;;4995612;28;20061;-56
2021/08/11 13:40:50;;;;;;;55.03;44.92;;;;;;;;;;4995659;28;20069;-47
2021/08/11 13:43:16;;;;;;;52.13;42.25;;;;;;;;;;4994240;28;20026;-48
2021/08/11 13:45:42;;;;;;;82.60;71.25;;;;;;;;;;4995555;28;20027;-55
2021/08/11 13:48:11;;;;;;;12.68;7.93;;;;;;;;;;4995679;28;20113;-56
2021/08/11 13:50:37;;;;;;;30.40;20.48;;;;;;;;;;4995536;28;20096;-53
2021/08/11 13:53:05;;;;;;;4.20;3.40;;;;;;;;;;4995432;28;20018;-55
2021/08/11 13:55:31;;;;;;;11.07;6.95;;;;;;;;;;4995397;28;20026;-52
2021/08/11 13:57:58;;;;;;;41.25;33.10;;;;;;;;;;4995357;28;20101;-53
2021/08/11 14:00:26;;;;;;;40.00;30.25;;;;;;;;;;4995344;28;20054;-55
2021/08/11 14:02:52;;;;;;;57.10;37.03;;;;;;;;;;4995233;28;20042;-62
2021/08/11 14:05:18;;;;;;;152.70;110.97;;;;;;;;;;4995461;28;20077;-56
2021/08/11 14:07:45;;;;;;;23.85;18.30;;;;;;;;;;4992583;28;20054;-56
2021/08/11 14:10:11;;;;;;;21.33;17.15;;;;;;;;;;4995191;28;20051;-56
2021/08/11 14:12:38;;;;;;;22.23;14.75;;;;;;;;;;4995532;28;20037;-56
2021/08/11 14:15:05;;;;;;;28.25;19.30;;;;;;;;;;4995424;28;20026;-57
2021/08/11 14:17:31;;;;;;;49.40;39.45;;;;;;;;;;4995399;28;20035;-56
2021/08/11 14:19:57;;;;;;;166.23;118.10;;;;;;;;;;4995395;28;20026;-55
2021/08/11 14:22:23;;;;;;;84.57;51.80;;;;;;;;;;4995318;28;20108;-54
2021/08/11 14:24:49;;;;;;;70.47;46.00;;;;;;;;;;4994980;28;20025;-57
2021/08/11 14:27:17;;;;;;;37.22;23.20;;;;;;;;;;4993316;28;20030;-57
2021/08/11 14:29:43;;;;;;;13.57;7.05;;;;;;;;;;4995029;28;20082;-58
2021/08/11 14:32:09;;;;;;;30.77;19.38;;;;;;;;;;4994711;28;20097;-61
2021/08/11 14:34:36;;;;;;;105.55;77.22;;;;;;;;;;4994422;28;20030;-64